createdAt,value
2023-03-24T00:00:54.670Z,56.56
2023-03-24T00:01:54.635Z,56.52
2023-03-24T00:02:54.706Z,58.56
2023-03-24T00:03:54.682Z,57.82
2023-03-24T00:04:54.611Z,57.74
2023-03-24T00:05:54.625Z,53.66
2023-03-24T00:06:54.609Z,54.54
2023-03-24T00:07:55.413Z,56.20
2023-03-24T00:08:54.581Z,52.92
2023-03-24T00:09:54.589Z,54.08
2023-03-24T00:10:54.569Z,54.01
2023-03-24T00:11:54.579Z,56.85
2023-03-24T00:12:54.567Z,55.70
2023-03-24T00:13:54.557Z,53.47
2023-03-24T00:14:54.549Z,52.67
2023-03-24T00:15:54.549Z,51.12
2023-03-24T00:16:54.554Z,50.87
2023-03-24T00:17:54.541Z,54.00
2023-03-24T00:18:54.590Z,52.07
2023-03-24T00:19:54.512Z,56.01
2023-03-24T00:20:54.512Z,52.07
2023-03-24T00:21:54.498Z,54.59
2023-03-24T00:22:54.496Z,53.94
2023-03-24T00:23:54.528Z,56.13
2023-03-24T00:24:54.485Z,52.28
2023-03-24T00:25:54.478Z,55.67
2023-03-24T00:26:54.477Z,50.51
2023-03-24T00:27:54.468Z,51.13
2023-03-24T00:28:54.485Z,54.84
2023-03-24T00:29:54.451Z,58.52
2023-03-24T00:30:54.480Z,55.96
2023-03-24T00:31:54.441Z,54.53
2023-03-24T00:32:54.440Z,54.10
2023-03-24T00:33:54.432Z,51.86
2023-03-24T00:34:54.447Z,48.57
2023-03-24T00:35:54.465Z,51.65
2023-03-24T00:36:54.395Z,53.17
2023-03-24T00:37:54.392Z,49.92
2023-03-24T00:38:54.391Z,48.79
2023-03-24T00:39:54.391Z,50.15
2023-03-24T00:40:54.389Z,49.66
2023-03-24T00:41:54.375Z,51.74
2023-03-24T00:42:54.367Z,51.15
2023-03-24T00:43:54.360Z,51.28
2023-03-24T00:44:54.364Z,50.95
2023-03-24T00:45:54.357Z,49.44
2023-03-24T00:46:54.343Z,54.23
2023-03-24T00:47:54.813Z,51.40
2023-03-24T00:48:54.319Z,49.00
2023-03-24T00:49:54.344Z,51.30
2023-03-24T00:50:54.318Z,52.81
2023-03-24T00:51:54.312Z,53.28
2023-03-24T00:52:54.336Z,53.11
2023-03-24T00:53:54.300Z,49.77
2023-03-24T00:54:54.293Z,54.79
2023-03-24T00:55:54.297Z,53.39
2023-03-24T00:56:54.309Z,55.98
2023-03-24T00:57:54.287Z,52.66
2023-03-24T00:58:54.269Z,48.65
2023-03-24T00:59:54.260Z,51.18
2023-03-24T01:00:54.282Z,56.52
2023-03-24T01:01:54.250Z,54.76
2023-03-24T01:02:54.408Z,48.63
2023-03-24T01:03:54.286Z,50.17
2023-03-24T01:04:54.251Z,51.34
2023-03-24T01:05:54.217Z,52.57
2023-03-24T01:06:54.210Z,50.13
2023-03-24T01:07:54.205Z,53.44
2023-03-24T01:08:54.215Z,49.56
2023-03-24T01:09:54.179Z,48.59
2023-03-24T01:10:54.199Z,52.07
2023-03-24T01:11:54.212Z,48.53
2023-03-24T01:12:54.205Z,48.12
2023-03-24T01:13:54.191Z,50.80
2023-03-24T01:14:54.251Z,49.96
2023-03-24T01:15:54.203Z,55.33
2023-03-24T01:16:54.152Z,53.32
2023-03-24T01:17:54.184Z,50.13
2023-03-24T01:18:54.148Z,54.60
2023-03-24T01:19:54.182Z,53.40
2023-03-24T01:20:54.142Z,55.67
2023-03-24T01:21:54.098Z,55.10
2023-03-24T01:22:54.089Z,52.03
2023-03-24T01:23:54.100Z,53.99
2023-03-24T01:24:54.090Z,51.76
2023-03-24T01:25:54.093Z,48.48
2023-03-24T01:26:54.071Z,49.30
2023-03-24T01:27:54.098Z,54.47
2023-03-24T01:28:54.069Z,53.20
2023-03-24T01:29:54.047Z,51.52
2023-03-24T01:30:54.074Z,51.40
2023-03-24T01:31:54.112Z,54.37
2023-03-24T01:32:55.068Z,53.37
2023-03-24T01:33:54.022Z,50.92
2023-03-24T01:34:54.022Z,51.37
2023-03-24T01:35:54.061Z,55.77
2023-03-24T01:36:54.016Z,50.08
2023-03-24T01:37:53.996Z,49.45
2023-03-24T01:38:54.006Z,49.93
2023-03-24T01:39:53.986Z,53.54
2023-03-24T01:40:54.966Z,55.43
2023-03-24T01:41:53.973Z,52.07
2023-03-24T01:42:53.960Z,52.63
2023-03-24T01:43:53.953Z,55.44
2023-03-24T01:44:54.207Z,51.47
2023-03-24T01:45:53.992Z,49.63
2023-03-24T01:46:53.951Z,56.97
2023-03-24T01:47:53.966Z,50.51
2023-03-24T01:48:53.922Z,48.93
2023-03-24T01:49:53.922Z,51.50
2023-03-24T01:50:53.919Z,56.81
2023-03-24T01:51:53.902Z,54.05
2023-03-24T01:52:53.896Z,50.79
2023-03-24T01:53:53.886Z,52.08
2023-03-24T01:54:53.907Z,52.65
2023-03-24T01:55:53.878Z,50.67
2023-03-24T01:56:53.936Z,51.05
2023-03-24T01:57:53.869Z,56.27
2023-03-24T01:58:53.890Z,49.82
2023-03-24T01:59:53.847Z,52.11
2023-03-24T02:00:53.875Z,50.96
2023-03-24T02:01:53.855Z,53.04
2023-03-24T02:02:53.886Z,52.61
2023-03-24T02:03:53.854Z,58.86
2023-03-24T02:04:53.809Z,53.29
2023-03-24T02:05:53.815Z,51.18
2023-03-24T02:06:53.811Z,50.24
2023-03-24T02:07:53.806Z,58.01
2023-03-24T02:08:53.791Z,53.82
2023-03-24T02:09:53.796Z,53.86
2023-03-24T02:10:53.775Z,54.22
2023-03-24T02:11:53.787Z,51.36
2023-03-24T02:12:54.117Z,50.84
2023-03-24T02:13:54.740Z,53.55
2023-03-24T02:14:53.746Z,52.51
2023-03-24T02:15:53.792Z,56.26
2023-03-24T02:16:53.735Z,53.92
2023-03-24T02:17:53.811Z,53.39
2023-03-24T02:18:53.730Z,50.29
2023-03-24T02:19:53.723Z,51.50
2023-03-24T02:20:53.710Z,54.20
2023-03-24T02:21:53.705Z,49.06
2023-03-24T02:22:53.706Z,54.12
2023-03-24T02:23:53.707Z,52.59
2023-03-24T02:24:53.690Z,52.33
2023-03-24T02:25:53.674Z,52.88
2023-03-24T02:26:53.680Z,48.88
2023-03-24T02:27:53.662Z,52.18
2023-03-24T02:28:53.674Z,53.03
2023-03-24T02:29:53.655Z,57.46
2023-03-24T02:30:53.643Z,54.34
2023-03-24T02:31:53.709Z,50.43
2023-03-24T02:32:53.700Z,49.01
2023-03-24T02:33:53.633Z,55.86
2023-03-24T02:34:53.615Z,50.30
2023-03-24T02:35:53.643Z,49.46
2023-03-24T02:36:53.610Z,54.67
2023-03-24T02:37:53.591Z,51.96
2023-03-24T02:38:53.612Z,53.16
2023-03-24T02:39:53.623Z,48.56
2023-03-24T02:40:53.577Z,53.06
2023-03-24T02:41:53.571Z,54.05
2023-03-24T02:42:53.567Z,54.00
2023-03-24T02:43:53.579Z,53.47
2023-03-24T02:44:53.557Z,54.03
2023-03-24T02:45:53.563Z,53.48
2023-03-24T02:46:53.540Z,52.37
2023-03-24T02:47:53.577Z,53.43
2023-03-24T02:48:53.525Z,53.31
2023-03-24T02:49:53.527Z,56.53
2023-03-24T02:50:53.513Z,53.29
2023-03-24T02:51:53.499Z,53.02
2023-03-24T02:52:53.494Z,52.75
2023-03-24T02:53:53.493Z,50.50
2023-03-24T02:54:53.519Z,49.56
2023-03-24T02:55:53.468Z,51.76
2023-03-24T02:56:53.514Z,52.92
2023-03-24T02:57:53.462Z,52.21
2023-03-24T02:58:53.453Z,51.70
2023-03-24T02:59:53.479Z,52.00
2023-03-24T03:00:53.437Z,51.93
2023-03-24T03:01:53.486Z,49.90
2023-03-24T03:02:53.450Z,51.50
2023-03-24T03:03:53.466Z,49.75
2023-03-24T03:04:53.425Z,51.40
2023-03-24T03:05:53.426Z,50.79
2023-03-24T03:06:53.417Z,55.86
2023-03-24T03:07:53.387Z,55.43
2023-03-24T03:08:53.400Z,54.15
2023-03-24T03:09:53.387Z,53.29
2023-03-24T03:10:53.375Z,52.66
2023-03-24T03:11:53.383Z,54.26
2023-03-24T03:12:53.368Z,55.22
2023-03-24T03:13:53.363Z,52.69
2023-03-24T03:14:53.339Z,54.22
2023-03-24T03:15:53.400Z,51.75
2023-03-24T03:16:53.352Z,50.94
2023-03-24T03:17:53.471Z,54.78
2023-03-24T03:18:53.317Z,54.60
2023-03-24T03:19:53.313Z,55.05
2023-03-24T03:20:53.351Z,56.57
2023-03-24T03:21:53.321Z,55.63
2023-03-24T03:22:53.298Z,52.66
2023-03-24T03:23:53.288Z,50.23
2023-03-24T03:24:53.303Z,50.76
2023-03-24T03:25:53.274Z,49.72
2023-03-24T03:26:53.295Z,50.73
2023-03-24T03:27:53.260Z,52.73
2023-03-24T03:28:53.258Z,53.07
2023-03-24T03:29:53.249Z,54.02
2023-03-24T03:30:53.270Z,53.31
2023-03-24T03:31:53.264Z,53.46
2023-03-24T03:32:53.319Z,56.11
2023-03-24T03:33:53.248Z,55.17
2023-03-24T03:34:53.221Z,54.71
2023-03-24T03:35:53.257Z,56.23
2023-03-24T03:36:53.210Z,56.21
2023-03-24T03:37:53.218Z,54.85
2023-03-24T03:38:53.189Z,56.07
2023-03-24T03:39:53.187Z,56.25
2023-03-24T03:40:53.187Z,55.45
2023-03-24T03:41:53.177Z,55.48
2023-03-24T03:42:53.191Z,55.57
2023-03-24T03:43:53.158Z,55.20
2023-03-24T03:44:53.162Z,53.99
2023-03-24T03:45:53.203Z,57.08
2023-03-24T03:46:53.149Z,56.13
2023-03-24T03:47:53.155Z,51.04
2023-03-24T03:48:53.139Z,55.83
2023-03-24T03:49:53.157Z,55.33
2023-03-24T03:50:59.885Z,54.46
2023-03-24T03:51:55.107Z,53.51
2023-03-24T03:52:53.114Z,56.68
2023-03-24T03:53:53.107Z,57.11
2023-03-24T03:54:53.105Z,58.71
2023-03-24T03:55:53.086Z,55.63
2023-03-24T03:56:53.094Z,57.61
2023-03-24T03:57:53.077Z,58.58
2023-03-24T03:58:53.082Z,56.41
2023-03-24T03:59:53.067Z,55.85
2023-03-24T04:00:53.070Z,58.24
2023-03-24T04:01:53.055Z,56.67
2023-03-24T04:02:53.132Z,58.65
2023-03-24T04:03:53.087Z,57.05
2023-03-24T04:04:59.776Z,57.72
2023-03-24T04:05:55.044Z,56.04
2023-03-24T04:06:53.024Z,57.24
2023-03-24T04:07:53.013Z,59.82
2023-03-24T04:08:53.004Z,57.82
2023-03-24T04:09:52.995Z,55.55
2023-03-24T04:10:53.997Z,59.15
2023-03-24T04:11:52.995Z,58.81
2023-03-24T04:12:52.978Z,57.31
2023-03-24T04:13:52.971Z,58.49
2023-03-24T04:14:52.977Z,57.49
2023-03-24T04:15:53.007Z,58.82
2023-03-24T04:16:52.946Z,59.45
2023-03-24T04:17:53.992Z,60.46
2023-03-24T04:18:52.933Z,60.84
2023-03-24T04:19:52.924Z,58.99
2023-03-24T04:20:52.986Z,60.38
2023-03-24T04:21:52.905Z,60.71
2023-03-24T04:22:52.920Z,59.83
2023-03-24T04:23:52.900Z,59.60
2023-03-24T04:24:52.899Z,58.55
2023-03-24T04:25:52.884Z,58.34
2023-03-24T04:26:52.877Z,61.64
2023-03-24T04:27:52.905Z,59.19
2023-03-24T04:28:52.869Z,58.25
2023-03-24T04:29:52.853Z,59.55
2023-03-24T04:30:52.873Z,59.79
2023-03-24T04:31:52.930Z,61.48
2023-03-24T04:32:53.878Z,61.07
2023-03-24T04:33:52.837Z,61.38
2023-03-24T04:34:52.821Z,61.96
2023-03-24T04:35:52.849Z,61.65
2023-03-24T04:36:52.827Z,60.90
2023-03-24T04:37:52.819Z,61.18
2023-03-24T04:38:52.803Z,60.22
2023-03-24T04:39:52.790Z,62.24
2023-03-24T04:40:52.792Z,61.42
2023-03-24T04:41:52.793Z,61.13
2023-03-24T04:42:52.912Z,60.40
2023-03-24T04:43:52.760Z,62.62
2023-03-24T04:44:52.758Z,62.30
2023-03-24T04:45:52.771Z,62.22
2023-03-24T04:46:52.752Z,61.08
2023-03-24T04:47:52.789Z,62.34
2023-03-24T04:48:52.747Z,61.58
2023-03-24T04:49:52.731Z,61.47
2023-03-24T04:50:52.723Z,59.97
2023-03-24T04:51:52.723Z,62.11
2023-03-24T04:52:52.711Z,62.79
2023-03-24T04:53:52.721Z,63.00
2023-03-24T04:54:52.708Z,60.83
2023-03-24T04:55:52.693Z,61.89
2023-03-24T04:56:52.785Z,61.03
2023-03-24T04:57:52.690Z,62.61
2023-03-24T04:58:52.684Z,62.52
2023-03-24T04:59:52.680Z,60.44
2023-03-24T05:00:52.694Z,61.78
2023-03-24T05:01:52.658Z,60.73
2023-03-24T05:02:52.687Z,60.82
2023-03-24T05:03:52.743Z,61.02
2023-03-24T05:04:52.648Z,63.26
2023-03-24T05:05:52.628Z,62.53
2023-03-24T05:06:52.628Z,61.81
2023-03-24T05:07:52.624Z,61.45
2023-03-24T05:08:52.642Z,62.12
2023-03-24T05:09:52.625Z,59.86
2023-03-24T05:10:52.609Z,61.88
2023-03-24T05:11:52.593Z,60.75
2023-03-24T05:12:52.585Z,60.96
2023-03-24T05:13:52.572Z,61.26
2023-03-24T05:14:52.584Z,62.82
2023-03-24T05:15:52.564Z,62.11
2023-03-24T05:16:52.630Z,63.12
2023-03-24T05:17:52.634Z,60.46
2023-03-24T05:18:53.552Z,62.79
2023-03-24T05:19:52.557Z,61.81
2023-03-24T05:20:52.580Z,62.86
2023-03-24T05:21:52.528Z,62.83
2023-03-24T05:22:52.514Z,62.86
2023-03-24T05:23:52.527Z,62.04
2023-03-24T05:24:52.535Z,63.28
2023-03-24T05:25:52.508Z,62.55
2023-03-24T05:26:52.527Z,63.78
2023-03-24T05:27:52.504Z,63.41
2023-03-24T05:28:52.471Z,63.83
2023-03-24T05:29:52.463Z,63.33
2023-03-24T05:30:52.579Z,63.22
2023-03-24T05:31:52.471Z,62.35
2023-03-24T05:32:52.533Z,62.96
2023-03-24T05:33:52.458Z,63.01
2023-03-24T05:34:52.481Z,62.82
2023-03-24T05:35:52.486Z,62.58
2023-03-24T05:36:52.409Z,62.25
2023-03-24T05:37:52.411Z,62.92
2023-03-24T05:38:52.418Z,63.45
2023-03-24T05:39:54.781Z,63.77
2023-03-24T05:40:52.401Z,63.77
2023-03-24T05:41:53.398Z,64.96
2023-03-24T05:42:52.385Z,63.42
2023-03-24T05:43:52.372Z,63.42
2023-03-24T05:44:52.372Z,63.49
2023-03-24T05:45:52.393Z,64.26
2023-03-24T05:46:52.351Z,63.91
2023-03-24T05:47:52.364Z,64.63
2023-03-24T05:48:52.378Z,63.93
2023-03-24T05:49:52.341Z,64.46
2023-03-24T05:50:52.352Z,64.19
2023-03-24T05:51:52.317Z,63.61
2023-03-24T05:52:52.340Z,63.58
2023-03-24T05:53:52.302Z,61.99
2023-03-24T05:54:52.404Z,62.93
2023-03-24T05:55:52.311Z,64.05
2023-03-24T05:56:52.467Z,64.80
2023-03-24T05:57:52.303Z,62.83
2023-03-24T05:58:52.263Z,63.74
2023-03-24T05:59:52.270Z,63.39
2023-03-24T06:00:52.292Z,65.19
2023-03-24T06:01:52.247Z,65.40
2023-03-24T06:02:52.329Z,65.46
2023-03-24T06:03:52.378Z,63.81
2023-03-24T06:04:52.249Z,64.32
2023-03-24T06:05:52.221Z,65.68
2023-03-24T06:06:52.212Z,63.90
2023-03-24T06:07:52.212Z,63.13
2023-03-24T06:08:52.205Z,62.56
2023-03-24T06:09:52.204Z,63.25
2023-03-24T06:10:52.212Z,62.68
2023-03-24T06:11:52.181Z,63.66
2023-03-24T06:12:52.202Z,62.98
2023-03-24T06:13:52.175Z,61.94
2023-03-24T06:14:52.163Z,63.27
2023-03-24T06:15:52.204Z,64.46
2023-03-24T06:16:52.152Z,64.25
2023-03-24T06:17:52.204Z,63.46
2023-03-24T06:18:52.136Z,64.24
2023-03-24T06:19:52.137Z,65.01
2023-03-24T06:20:52.360Z,62.83
2023-03-24T06:21:52.116Z,63.02
2023-03-24T06:22:52.112Z,63.05
2023-03-24T06:23:52.094Z,62.24
2023-03-24T06:24:52.103Z,62.85
2023-03-24T06:25:52.113Z,63.19
2023-03-24T06:26:52.085Z,64.69
2023-03-24T06:27:52.088Z,64.23
2023-03-24T06:28:52.058Z,63.50
2023-03-24T06:29:52.064Z,65.12
2023-03-24T06:30:52.087Z,64.23
2023-03-24T06:31:52.040Z,63.14
2023-03-24T06:32:53.127Z,62.88
2023-03-24T06:33:52.033Z,64.06
2023-03-24T06:34:52.021Z,64.46
2023-03-24T06:35:52.072Z,64.86
2023-03-24T06:36:52.008Z,63.74
2023-03-24T06:37:52.002Z,63.25
2023-03-24T06:38:51.996Z,63.46
2023-03-24T06:39:51.985Z,63.51
2023-03-24T06:40:51.980Z,63.92
2023-03-24T06:41:51.990Z,62.06
2023-03-24T06:42:51.977Z,64.03
2023-03-24T06:43:51.966Z,61.58
2023-03-24T06:44:51.962Z,62.82
2023-03-24T06:45:51.952Z,63.62
2023-03-24T06:46:52.019Z,63.34
2023-03-24T06:47:53.001Z,63.66
2023-03-24T06:48:51.950Z,63.26
2023-03-24T06:49:51.919Z,62.47
2023-03-24T06:50:51.919Z,63.84
2023-03-24T06:51:51.916Z,64.20
2023-03-24T06:52:51.904Z,62.90
2023-03-24T06:53:51.913Z,65.35
2023-03-24T06:54:51.889Z,64.94
2023-03-24T06:55:51.891Z,63.28
2023-03-24T06:56:51.962Z,60.95
2023-03-24T06:57:51.879Z,64.09
2023-03-24T06:58:51.881Z,63.26
2023-03-24T06:59:51.866Z,63.40
2023-03-24T07:00:51.856Z,63.02
2023-03-24T07:01:51.925Z,62.16
2023-03-24T07:02:51.915Z,61.91
2023-03-24T07:03:51.857Z,62.98
2023-03-24T07:04:51.832Z,61.80
2023-03-24T07:05:51.830Z,62.81
2023-03-24T07:07:10.841Z,61.98
2023-03-24T07:08:27.861Z,62.27
2023-03-24T07:08:53.825Z,63.56
2023-03-24T07:09:51.813Z,61.24
2023-03-24T07:10:51.784Z,63.11
2023-03-24T07:11:51.780Z,64.88
2023-03-24T07:12:51.777Z,62.15
2023-03-24T07:13:51.760Z,62.62
2023-03-24T07:14:51.776Z,64.52
2023-03-24T07:15:51.798Z,62.86
2023-03-24T07:16:51.749Z,63.48
2023-03-24T07:17:51.772Z,62.67
2023-03-24T07:18:52.753Z,64.86
2023-03-24T07:19:51.743Z,63.72
2023-03-24T07:20:51.759Z,63.75
2023-03-24T07:21:51.704Z,61.47
2023-03-24T07:22:51.712Z,62.19
2023-03-24T07:23:51.724Z,63.05
2023-03-24T07:24:53.619Z,62.37
2023-03-24T07:25:51.714Z,65.29
2023-03-24T07:26:51.706Z,66.32
2023-03-24T07:27:51.681Z,66.57
2023-03-24T07:28:51.696Z,67.82
2023-03-24T07:29:51.671Z,65.48
2023-03-24T07:30:53.885Z,65.35
2023-03-24T07:31:51.683Z,65.30
2023-03-24T07:32:51.692Z,63.35
2023-03-24T07:33:51.672Z,62.48
2023-03-24T07:34:51.644Z,65.27
2023-03-24T07:35:51.720Z,63.09
2023-03-24T07:36:51.645Z,62.03
2023-03-24T07:37:51.619Z,64.28
2023-03-24T07:38:51.620Z,62.41
2023-03-24T07:39:51.607Z,64.11
2023-03-24T07:40:51.617Z,66.68
2023-03-24T07:41:51.625Z,62.47
2023-03-24T07:42:51.604Z,62.94
2023-03-24T07:43:51.586Z,62.54
2023-03-24T07:44:51.594Z,63.01
2023-03-24T07:45:51.632Z,63.74
2023-03-24T07:46:51.566Z,62.57
2023-03-24T07:47:51.628Z,62.33
2023-03-24T07:48:51.576Z,62.15
2023-03-24T07:49:52.561Z,61.95
2023-03-24T07:50:51.715Z,59.96
2023-03-24T07:51:51.537Z,59.42
2023-03-24T07:52:51.560Z,59.58
2023-03-24T07:53:51.585Z,62.84
2023-03-24T07:54:51.519Z,61.91
2023-03-24T07:55:51.677Z,62.09
2023-03-24T07:56:52.613Z,61.27
2023-03-24T07:57:51.546Z,61.00
2023-03-24T07:58:51.554Z,62.38
2023-03-24T07:59:51.486Z,61.33
2023-03-24T08:00:51.689Z,60.41
2023-03-24T08:01:54.872Z,61.21
2023-03-24T08:02:53.819Z,61.68
2023-03-24T08:03:51.683Z,61.64
2023-03-24T08:04:51.490Z,61.38
2023-03-24T08:05:51.459Z,62.60
2023-03-24T08:06:51.463Z,61.01
2023-03-24T08:07:51.443Z,61.01
2023-03-24T08:08:51.455Z,60.22
2023-03-24T08:09:51.432Z,60.60
2023-03-24T08:10:51.441Z,61.81
2023-03-24T08:11:51.416Z,61.24
2023-03-24T08:12:52.470Z,60.66
2023-03-24T08:13:51.409Z,62.70
2023-03-24T08:14:51.443Z,62.81
2023-03-24T08:15:51.396Z,60.81
2023-03-24T08:16:51.409Z,61.94
2023-03-24T08:17:51.436Z,62.54
2023-03-24T08:18:51.375Z,61.48
2023-03-24T08:20:00.161Z,62.40
2023-03-24T08:20:53.362Z,60.98
2023-03-24T08:21:51.362Z,62.05
2023-03-24T08:22:51.351Z,59.69
2023-03-24T08:23:51.344Z,63.37
2023-03-24T08:24:51.345Z,60.35
2023-03-24T08:25:51.326Z,58.95
2023-03-24T08:26:51.357Z,62.66
2023-03-24T08:27:51.318Z,59.92
2023-03-24T08:28:51.314Z,62.37
2023-03-24T08:29:51.312Z,62.08
2023-03-24T08:30:51.600Z,62.81
2023-03-24T08:31:51.288Z,62.71
2023-03-24T08:32:51.478Z,62.24
2023-03-24T08:33:51.281Z,61.82
2023-03-24T08:34:51.289Z,62.52
2023-03-24T08:35:51.564Z,59.73
2023-03-24T08:36:51.286Z,62.35
2023-03-24T08:37:51.291Z,59.69
2023-03-24T08:38:51.323Z,60.34
2023-03-24T08:39:51.240Z,60.92
2023-03-24T08:40:51.271Z,62.58
2023-03-24T08:41:51.231Z,62.21
2023-03-24T08:42:51.233Z,61.89
2023-03-24T08:43:51.237Z,61.66
2023-03-24T08:44:51.239Z,59.31
2023-03-24T08:45:51.319Z,59.44
2023-03-24T08:46:51.227Z,61.54
2023-03-24T08:47:51.206Z,61.17
2023-03-24T08:48:51.225Z,59.15
2023-03-24T08:49:51.208Z,61.84
2023-03-24T08:50:51.168Z,61.96
2023-03-24T08:51:51.177Z,62.41
2023-03-24T08:52:51.186Z,62.02
2023-03-24T08:53:51.143Z,60.42
2023-03-24T08:54:51.165Z,61.18
2023-03-24T08:55:51.142Z,60.27
2023-03-24T08:56:51.228Z,60.45
2023-03-24T08:57:51.152Z,59.31
2023-03-24T08:58:51.122Z,59.40
2023-03-24T08:59:51.486Z,61.70
2023-03-24T09:00:52.107Z,60.27
2023-03-24T09:01:51.197Z,61.63
2023-03-24T09:02:51.124Z,60.70
2023-03-24T09:03:51.120Z,60.00
2023-03-24T09:04:51.105Z,60.67
2023-03-24T09:05:51.128Z,60.46
2023-03-24T09:06:51.073Z,62.35
2023-03-24T09:07:51.064Z,60.63
2023-03-24T09:08:51.053Z,58.93
2023-03-24T09:09:51.060Z,59.21
2023-03-24T09:10:51.091Z,59.23
2023-03-24T09:11:51.045Z,60.52
2023-03-24T09:12:51.041Z,60.25
2023-03-24T09:13:51.031Z,60.56
2023-03-24T09:14:51.051Z,59.61
2023-03-24T09:15:51.548Z,59.52
2023-03-24T09:16:51.000Z,61.21
2023-03-24T09:17:51.046Z,59.27
2023-03-24T09:18:51.003Z,59.75
2023-03-24T09:19:51.009Z,60.94
2023-03-24T09:20:51.182Z,62.50
2023-03-24T09:21:50.973Z,60.21
2023-03-24T09:22:50.973Z,58.86
2023-03-24T09:23:50.970Z,59.53
2023-03-24T09:24:51.025Z,58.16
2023-03-24T09:25:51.080Z,59.71
2023-03-24T09:26:50.952Z,58.91
2023-03-24T09:27:50.940Z,58.27
2023-03-24T09:28:50.943Z,58.76
2023-03-24T09:29:50.941Z,58.81
2023-03-24T09:30:51.126Z,59.97
2023-03-24T09:31:50.994Z,60.74
2023-03-24T09:32:50.918Z,59.33
2023-03-24T09:33:50.904Z,58.33
2023-03-24T09:34:50.892Z,59.27
2023-03-24T09:35:50.988Z,58.96
2023-03-24T09:36:50.893Z,59.80
2023-03-24T09:37:50.874Z,61.50
2023-03-24T09:38:50.878Z,60.25
2023-03-24T09:39:50.859Z,59.62
2023-03-24T09:40:50.879Z,61.75
2023-03-24T09:41:50.862Z,58.90
2023-03-24T09:42:50.852Z,56.78
2023-03-24T09:43:50.861Z,60.58
2023-03-24T09:44:50.836Z,59.93
2023-03-24T09:45:50.825Z,59.45
2023-03-24T09:46:50.872Z,59.58
2023-03-24T09:47:50.812Z,59.15
2023-03-24T09:48:50.806Z,59.82
2023-03-24T09:49:50.803Z,61.88
2023-03-24T09:50:50.813Z,59.43
2023-03-24T09:51:50.780Z,60.13
2023-03-24T09:52:51.780Z,59.97
2023-03-24T09:53:50.823Z,61.33
2023-03-24T09:54:50.775Z,61.08
2023-03-24T09:55:50.780Z,60.72
2023-03-24T09:56:51.731Z,59.41
2023-03-24T09:57:51.758Z,60.99
2023-03-24T09:58:50.746Z,60.52
2023-03-24T09:59:50.760Z,60.93
2023-03-24T10:00:51.023Z,59.55
2023-03-24T10:01:50.741Z,59.30
2023-03-24T10:02:52.571Z,61.54
2023-03-24T10:03:51.839Z,61.86
2023-03-24T10:04:50.759Z,60.73
2023-03-24T10:05:50.794Z,59.30
2023-03-24T10:06:50.699Z,61.35
2023-03-24T10:07:50.904Z,60.44
2023-03-24T10:08:51.697Z,62.43
2023-03-24T10:09:50.676Z,61.14
2023-03-24T10:10:50.676Z,62.90
2023-03-24T10:11:50.660Z,61.35
2023-03-24T10:12:50.675Z,60.87
2023-03-24T10:13:50.658Z,61.38
2023-03-24T10:14:50.656Z,60.49
2023-03-24T10:15:50.779Z,61.27
2023-03-24T10:16:51.646Z,60.54
2023-03-24T10:17:50.679Z,62.23
2023-03-24T10:18:50.649Z,61.59
2023-03-24T10:19:50.637Z,58.96
2023-03-24T10:20:50.616Z,60.93
2023-03-24T10:21:50.609Z,60.26
2023-03-24T10:22:50.603Z,62.18
2023-03-24T10:23:50.608Z,61.51
2023-03-24T10:24:50.593Z,61.02
2023-03-24T10:25:50.707Z,61.87
2023-03-24T10:26:50.573Z,62.11
2023-03-24T10:27:50.570Z,61.97
2023-03-24T10:28:50.567Z,60.48
2023-03-24T10:29:50.561Z,61.53
2023-03-24T10:30:50.551Z,60.96
2023-03-24T10:31:50.592Z,61.11
2023-03-24T10:32:50.576Z,61.26
2023-03-24T10:33:50.540Z,62.39
2023-03-24T10:34:50.521Z,60.72
2023-03-24T10:35:50.716Z,62.09
2023-03-24T10:36:50.524Z,62.68
2023-03-24T10:37:50.503Z,61.03
2023-03-24T10:38:50.533Z,60.01
2023-03-24T10:39:50.504Z,60.64
2023-03-24T10:40:50.484Z,60.03
2023-03-24T10:41:50.486Z,62.22
2023-03-24T10:43:06.788Z,61.85
2023-03-24T10:43:51.490Z,62.21
2023-03-24T10:44:50.479Z,60.91
2023-03-24T10:45:50.680Z,60.61
2023-03-24T10:46:50.461Z,62.12
2023-03-24T10:47:50.484Z,60.26
2023-03-24T10:48:50.437Z,61.69
2023-03-24T10:49:50.449Z,61.64
2023-03-24T10:50:50.437Z,60.93
2023-03-24T10:51:50.421Z,61.67
2023-03-24T10:52:50.412Z,61.34
2023-03-24T10:53:50.417Z,61.16
2023-03-24T10:54:50.401Z,61.39
2023-03-24T10:55:50.553Z,61.58
2023-03-24T10:56:50.475Z,59.70
2023-03-24T10:57:50.424Z,60.47
2023-03-24T10:58:50.394Z,59.91
2023-03-24T10:59:50.386Z,59.74
2023-03-24T11:00:50.420Z,59.67
2023-03-24T11:01:50.380Z,59.23
2023-03-24T11:02:50.419Z,59.75
2023-03-24T11:03:50.355Z,60.52
2023-03-24T11:04:50.335Z,60.45
2023-03-24T11:05:50.504Z,60.50
2023-03-24T11:06:50.330Z,61.62
2023-03-24T11:07:50.335Z,59.87
2023-03-24T11:08:50.322Z,59.54
2023-03-24T11:09:50.300Z,60.40
2023-03-24T11:10:51.305Z,59.23
2023-03-24T11:11:50.288Z,59.89
2023-03-24T11:12:50.321Z,61.67
2023-03-24T11:13:50.280Z,61.67
2023-03-24T11:14:50.275Z,59.93
2023-03-24T11:15:50.388Z,58.93
2023-03-24T11:16:50.308Z,61.07
2023-03-24T11:17:50.293Z,62.49
2023-03-24T11:18:50.237Z,61.35
2023-03-24T11:19:50.233Z,61.59
2023-03-24T11:20:50.232Z,61.22
2023-03-24T11:21:50.251Z,60.23
2023-03-24T11:22:50.210Z,60.70
2023-03-24T11:23:50.219Z,60.46
2023-03-24T11:24:50.238Z,60.92
2023-03-24T11:25:50.356Z,60.80
2023-03-24T11:26:50.197Z,60.47
2023-03-24T11:27:50.187Z,62.26
2023-03-24T11:28:50.199Z,61.79
2023-03-24T11:29:50.184Z,60.32
2023-03-24T11:30:50.196Z,61.54
2023-03-24T11:31:50.164Z,61.24
2023-03-24T11:32:50.197Z,62.06
2023-03-24T11:33:50.151Z,62.88
2023-03-24T11:34:50.137Z,60.92
2023-03-24T11:35:56.038Z,62.87
2023-03-24T11:36:52.229Z,61.22
2023-03-24T11:37:50.159Z,62.34
2023-03-24T11:38:50.136Z,61.55
2023-03-24T11:39:50.125Z,62.32
2023-03-24T11:40:50.108Z,62.35
2023-03-24T11:41:50.107Z,61.96
2023-03-24T11:42:50.097Z,61.69
2023-03-24T11:43:50.089Z,62.24
2023-03-24T11:44:50.087Z,61.95
2023-03-24T11:45:50.209Z,61.64
2023-03-24T11:46:50.098Z,61.65
2023-03-24T11:47:50.079Z,61.37
2023-03-24T11:48:50.058Z,62.04
2023-03-24T11:49:50.064Z,61.19
2023-03-24T11:50:50.049Z,58.98
2023-03-24T11:51:50.059Z,60.61
2023-03-24T11:52:50.047Z,61.82
2023-03-24T11:53:50.021Z,62.54
2023-03-24T11:54:50.016Z,60.99
2023-03-24T11:55:50.147Z,61.30
2023-03-24T11:56:50.054Z,60.98
2023-03-24T11:57:50.018Z,60.37
2023-03-24T11:58:50.009Z,61.15
2023-03-24T11:59:49.981Z,61.02
2023-03-24T12:00:49.975Z,61.01
2023-03-24T12:01:49.961Z,60.85
2023-03-24T12:02:50.128Z,61.11
2023-03-24T12:03:50.066Z,61.60
2023-03-24T12:04:49.950Z,60.06
2023-03-24T12:05:51.019Z,60.99
2023-03-24T12:06:50.932Z,60.51
2023-03-24T12:07:49.936Z,61.51
2023-03-24T12:08:49.935Z,62.34
2023-03-24T12:09:49.923Z,59.64
2023-03-24T12:10:49.896Z,61.57
2023-03-24T12:11:49.890Z,60.05
2023-03-24T12:12:49.897Z,61.22
2023-03-24T12:13:49.900Z,61.32
2023-03-24T12:14:49.883Z,61.29
2023-03-24T12:15:50.039Z,60.89
2023-03-24T12:16:49.861Z,61.20
2023-03-24T12:17:49.879Z,60.85
2023-03-24T12:18:49.841Z,61.56
2023-03-24T12:19:49.937Z,61.12
2023-03-24T12:20:49.837Z,61.83
2023-03-24T12:21:49.826Z,61.05
2023-03-24T12:22:49.822Z,62.00
2023-03-24T12:23:49.816Z,62.04
2023-03-24T12:24:49.843Z,60.87
2023-03-24T12:25:50.016Z,60.58
2023-03-24T12:26:49.787Z,61.37
2023-03-24T12:27:49.805Z,61.93
2023-03-24T12:28:49.789Z,61.82
2023-03-24T12:29:49.777Z,60.81
2023-03-24T12:30:49.896Z,61.72
2023-03-24T12:31:49.837Z,61.53
2023-03-24T12:32:49.792Z,61.17
2023-03-24T12:33:49.757Z,60.54
2023-03-24T12:34:49.743Z,59.68
2023-03-24T12:35:49.984Z,60.04
2023-03-24T12:36:49.735Z,59.74
2023-03-24T12:37:49.713Z,61.13
2023-03-24T12:38:49.724Z,60.62
2023-03-24T12:39:50.700Z,61.77
2023-03-24T12:40:49.692Z,60.39
2023-03-24T12:41:49.693Z,59.48
2023-03-24T12:42:49.704Z,60.11
2023-03-24T12:43:49.693Z,60.34
2023-03-24T12:44:49.673Z,61.43
2023-03-24T12:45:49.858Z,60.88
2023-03-24T12:46:51.468Z,61.93
2023-03-24T12:47:49.799Z,60.97
2023-03-24T12:48:49.648Z,60.75
2023-03-24T12:49:49.631Z,61.92
2023-03-24T12:50:49.628Z,60.27
2023-03-24T12:51:49.738Z,61.99
2023-03-24T12:52:58.073Z,60.44